Time;durP1;ratioP1;P1;durP2;ratioP2;P2;SDS_P1;SDS_P2;PMS_P1;PMS_P2;Temp;Humidity;BMP_temperature;BMP_pressure;BME280_temperature;BME280_humidity;BME280_pressure;Samples;Min_cycle;Max_cycle;Signal;HPM_P1;HPM_P2
2022/07/19 00:00:14;;;;;;;7.32;6.00;;;19.90;99.90;;;;;;4934822;29;20441;-76
2022/07/19 00:02:39;;;;;;;10.63;6.43;;;19.80;99.90;;;;;;4933265;29;20051;-74
2022/07/19 00:05:07;;;;;;;6.88;6.07;;;19.80;99.90;;;;;;4934817;29;20050;-76
2022/07/19 00:07:33;;;;;;;10.48;6.50;;;19.80;99.90;;;;;;4934455;29;20052;-72
2022/07/19 00:09:58;;;;;;;8.35;5.75;;;19.70;99.90;;;;;;4933601;29;20114;-74
2022/07/19 00:12:24;;;;;;;5.75;4.72;;;19.70;99.90;;;;;;4934998;29;20498;-77
2022/07/19 00:14:50;;;;;;;7.20;5.32;;;19.70;99.90;;;;;;4934634;29;20051;-74
2022/07/19 00:17:16;;;;;;;7.88;5.80;;;19.70;99.90;;;;;;4934903;29;20102;-79
2022/07/19 00:19:41;;;;;;;6.80;5.93;;;19.60;99.90;;;;;;4934859;29;20059;-74
2022/07/19 00:22:07;;;;;;;9.68;5.78;;;19.60;99.90;;;;;;4935051;29;20071;-76
2022/07/19 00:24:32;;;;;;;6.53;5.38;;;19.60;99.90;;;;;;4934483;29;20055;-76
2022/07/19 00:26:58;;;;;;;7.95;5.57;;;19.50;99.90;;;;;;4934607;29;20059;-73
2022/07/19 00:29:24;;;;;;;8.38;6.18;;;19.60;99.90;;;;;;4935072;29;20044;-77
2022/07/19 00:31:50;;;;;;;11.27;5.68;;;19.50;99.90;;;;;;4933373;29;20544;-78
2022/07/19 00:34:15;;;;;;;8.25;5.30;;;19.40;99.90;;;;;;4937788;29;20051;-78
2022/07/19 00:36:42;;;;;;;7.03;5.60;;;19.30;99.90;;;;;;4938260;29;20075;-73
2022/07/19 00:39:07;;;;;;;9.18;5.68;;;19.30;99.90;;;;;;4938166;29;20044;-78
2022/07/19 00:41:40;;;;;;;6.40;5.30;;;19.20;99.90;;;;;;4938677;29;20066;-72
2022/07/19 00:44:05;;;;;;;7.05;6.32;;;19.10;99.90;;;;;;4938258;29;20563;-78
2022/07/19 00:46:31;;;;;;;8.32;5.95;;;19.00;99.90;;;;;;4937866;29;20079;-74
2022/07/19 00:48:57;;;;;;;8.48;5.85;;;19.10;99.90;;;;;;4938347;29;20473;-79
2022/07/19 00:51:23;;;;;;;7.18;5.20;;;19.10;99.90;;;;;;4937732;29;20122;-76
2022/07/19 00:53:49;;;;;;;10.65;5.70;;;19.00;99.90;;;;;;4938288;29;20090;-75
2022/07/19 00:56:17;;;;;;;7.05;5.35;;;19.00;99.90;;;;;;4937570;29;20146;-78
2022/07/19 00:58:42;;;;;;;10.82;5.93;;;19.00;99.90;;;;;;4936815;29;20063;-78
2022/07/19 01:01:09;;;;;;;8.63;6.10;;;18.90;99.90;;;;;;4938101;29;20044;-74
2022/07/19 01:03:38;;;;;;;8.07;6.38;;;18.90;99.90;;;;;;4936702;29;20502;-72
2022/07/19 01:06:03;;;;;;;9.10;6.68;;;18.90;99.90;;;;;;4937724;29;20390;-74
2022/07/19 01:08:29;;;;;;;9.70;6.63;;;18.90;99.90;;;;;;4938115;29;20058;-76
2022/07/19 01:10:55;;;;;;;9.88;6.13;;;18.90;99.90;;;;;;4937771;29;20052;-80
2022/07/19 01:13:21;;;;;;;9.77;6.65;;;18.90;99.90;;;;;;4937926;29;20043;-74
2022/07/19 01:15:47;;;;;;;7.10;5.28;;;18.90;99.90;;;;;;4921021;29;20055;-73
2022/07/19 01:18:12;;;;;;;9.65;6.55;;;18.80;99.90;;;;;;4937486;29;20047;-78
2022/07/19 01:20:38;;;;;;;7.95;6.38;;;18.80;99.90;;;;;;4936778;29;20055;-75
2022/07/19 01:23:04;;;;;;;11.98;7.78;;;18.70;99.90;;;;;;4937034;29;20134;-76
2022/07/19 01:25:35;;;;;;;7.55;5.97;;;18.70;99.90;;;;;;4937486;29;20040;-76
2022/07/19 01:28:04;;;;;;;10.10;6.60;;;18.70;99.90;;;;;;4937491;29;20052;-73
2022/07/19 01:30:29;;;;;;;6.72;6.03;;;18.70;99.90;;;;;;4937429;29;20052;-77
2022/07/19 01:32:56;;;;;;;10.45;7.32;;;18.60;99.90;;;;;;4937574;29;20048;-79
2022/07/19 01:35:22;;;;;;;7.35;5.75;;;18.60;99.90;;;;;;4936437;29;20039;-76
2022/07/19 01:37:48;;;;;;;7.47;6.28;;;18.60;99.90;;;;;;4937350;29;20063;-78
2022/07/19 01:40:15;;;;;;;8.93;6.70;;;18.60;99.90;;;;;;4937054;29;20055;-77
2022/07/19 01:42:42;;;;;;;11.38;7.25;;;18.60;99.90;;;;;;4937175;29;20114;-73
2022/07/19 01:45:09;;;;;;;11.38;7.70;;;18.60;99.90;;;;;;4936390;29;20048;-78
2022/07/19 01:47:36;;;;;;;13.10;7.25;;;18.60;99.90;;;;;;4936995;29;20051;-78
2022/07/19 01:50:05;;;;;;;8.57;6.18;;;18.60;99.90;;;;;;4937068;29;20087;-76
2022/07/19 01:52:31;;;;;;;8.73;6.85;;;18.60;99.90;;;;;;4937343;29;20043;-74
2022/07/19 01:54:57;;;;;;;9.85;7.15;;;18.50;99.90;;;;;;4937002;29;20047;-75
2022/07/19 01:57:23;;;;;;;9.82;7.20;;;18.50;99.90;;;;;;4935783;29;20043;-79
2022/07/19 01:59:49;;;;;;;12.80;6.95;;;18.50;99.90;;;;;;4936895;29;20074;-75
2022/07/19 02:02:14;;;;;;;15.30;7.65;;;18.50;99.90;;;;;;4935970;29;20055;-75
2022/07/19 02:04:40;;;;;;;9.60;6.68;;;18.40;99.90;;;;;;4937051;29;20067;-74
2022/07/19 02:07:06;;;;;;;7.25;6.07;;;18.40;99.90;;;;;;4936690;29;20050;-79
2022/07/19 02:09:31;;;;;;;7.35;5.43;;;18.30;99.90;;;;;;4936242;29;20135;-77
2022/07/19 02:11:57;;;;;;;13.05;7.43;;;18.30;99.90;;;;;;4936600;29;20048;-77
2022/07/19 02:14:23;;;;;;;10.75;6.60;;;18.20;99.90;;;;;;4935482;29;20126;-74
2022/07/19 02:16:48;;;;;;;6.35;5.55;;;18.20;99.90;;;;;;4937001;29;20122;-75
2022/07/19 02:19:14;;;;;;;10.60;6.85;;;18.20;99.90;;;;;;4935281;29;20465;-76
2022/07/19 02:21:40;;;;;;;14.77;8.40;;;18.20;99.90;;;;;;4919647;29;20087;-77
2022/07/19 02:24:07;;;;;;;12.52;8.35;;;18.20;99.90;;;;;;4936487;29;20107;-73
2022/07/19 02:26:34;;;;;;;13.90;8.73;;;18.20;99.90;;;;;;4936154;29;20044;-76
2022/07/19 02:29:00;;;;;;;15.88;10.10;;;18.20;99.90;;;;;;4936426;29;20126;-74
2022/07/19 02:31:26;;;;;;;13.40;10.93;;;18.10;99.90;;;;;;4936694;29;20047;-75
2022/07/19 02:33:51;;;;;;;12.10;10.50;;;18.10;99.90;;;;;;4935154;29;20391;-75
2022/07/19 02:36:17;;;;;;;11.88;9.38;;;18.00;99.90;;;;;;4935100;29;20059;-78
2022/07/19 02:38:44;;;;;;;12.02;9.20;;;18.00;99.90;;;;;;4936132;29;20052;-79
2022/07/19 02:41:10;;;;;;;14.50;9.18;;;18.00;99.90;;;;;;4936134;29;20056;-76
2022/07/19 02:43:35;;;;;;;10.27;9.07;;;18.00;99.90;;;;;;4934909;29;20056;-76
2022/07/19 02:46:01;;;;;;;10.48;9.18;;;17.90;99.90;;;;;;4936382;29;20119;-73
2022/07/19 02:48:27;;;;;;;9.45;8.48;;;17.90;99.90;;;;;;4934800;29;20146;-76
2022/07/19 02:50:53;;;;;;;10.27;8.45;;;17.90;99.90;;;;;;4934685;29;20044;-72
2022/07/19 02:53:18;;;;;;;10.50;8.82;;;17.90;99.90;;;;;;4935817;29;20070;-74
2022/07/19 02:55:44;;;;;;;11.40;9.20;;;17.90;99.90;;;;;;4936113;29;20139;-74
2022/07/19 02:58:10;;;;;;;12.00;9.43;;;17.90;99.90;;;;;;4936091;29;20373;-77
2022/07/19 03:00:35;;;;;;;14.88;11.02;;;17.90;99.90;;;;;;4936175;29;20043;-79
2022/07/19 03:05:47;;;;;;;10.32;7.82;;;17.80;99.90;;;;;;4934719;29;20132;-76
2022/07/19 03:08:14;;;;;;;9.10;8.00;;;17.70;99.90;;;;;;4935584;29;20044;-80
2022/07/19 03:10:39;;;;;;;7.82;7.05;;;17.70;99.90;;;;;;4935937;29;20135;-77
2022/07/19 03:13:05;;;;;;;11.18;7.88;;;17.70;99.90;;;;;;4935364;29;20100;-77
2022/07/19 03:15:31;;;;;;;10.98;8.13;;;17.60;99.90;;;;;;4935556;29;20054;-76
2022/07/19 03:17:56;;;;;;;10.43;7.75;;;17.50;99.90;;;;;;4935398;29;20059;-75
2022/07/19 03:20:22;;;;;;;10.60;7.18;;;17.50;99.90;;;;;;4935813;29;20047;-77
2022/07/19 03:22:48;;;;;;;9.45;6.72;;;17.50;99.90;;;;;;4935265;29;20055;-76
2022/07/19 03:25:14;;;;;;;11.00;8.63;;;17.50;99.90;;;;;;4935495;29;20147;-77
2022/07/19 03:27:40;;;;;;;14.50;9.45;;;17.50;99.90;;;;;;4935300;29;20130;-77
2022/07/19 03:30:07;;;;;;;13.10;10.10;;;17.50;99.90;;;;;;4935505;29;20447;-76
2022/07/19 03:32:32;;;;;;;13.23;10.05;;;17.50;99.90;;;;;;4935219;29;20130;-74
2022/07/19 03:34:58;;;;;;;12.93;9.32;;;17.40;99.90;;;;;;4935626;29;20118;-78
2022/07/19 03:37:24;;;;;;;12.50;9.68;;;17.40;99.90;;;;;;4935311;29;20053;-78
2022/07/19 03:39:50;;;;;;;12.75;8.63;;;17.40;99.90;;;;;;4935381;29;20052;-76
2022/07/19 03:42:16;;;;;;;13.30;8.93;;;17.40;99.90;;;;;;4935793;29;20064;-76
2022/07/19 03:44:42;;;;;;;9.27;8.38;;;17.40;99.90;;;;;;4934968;29;20563;-74
2022/07/19 03:47:07;;;;;;;16.60;9.93;;;17.50;99.90;;;;;;4934218;29;20134;-78
2022/07/19 03:49:33;;;;;;;13.73;9.60;;;17.40;99.90;;;;;;4935046;29;20183;-77
2022/07/19 03:51:58;;;;;;;13.95;9.75;;;17.40;99.90;;;;;;4934873;29;20095;-74
2022/07/19 03:54:24;;;;;;;13.57;8.15;;;17.30;99.90;;;;;;4935307;29;20115;-78
2022/07/19 03:56:50;;;;;;;12.60;9.25;;;17.30;99.90;;;;;;4934678;29;20047;-72
2022/07/19 03:59:16;;;;;;;14.98;9.98;;;17.30;99.90;;;;;;4935292;29;20079;-77
2022/07/19 04:01:41;;;;;;;11.30;8.05;;;17.30;99.90;;;;;;4934868;29;20481;-74
2022/07/19 04:04:07;;;;;;;10.52;8.40;;;17.30;99.90;;;;;;4934633;29;20052;-77
2022/07/19 04:06:33;;;;;;;10.10;8.25;;;17.30;99.90;;;;;;4934732;29;20506;-76
2022/07/19 04:08:59;;;;;;;10.90;8.00;;;17.30;99.90;;;;;;4937550;29;20048;-76
2022/07/19 04:11:24;;;;;;;10.40;7.95;;;17.30;99.90;;;;;;4938964;29;20053;-77
2022/07/19 04:13:50;;;;;;;10.32;7.90;;;17.40;99.90;;;;;;4938607;29;20457;-77
2022/07/19 04:16:16;;;;;;;9.10;7.85;;;17.40;99.90;;;;;;4938316;29;20044;-79
2022/07/19 04:18:42;;;;;;;11.85;8.40;;;17.40;99.90;;;;;;4938758;29;20123;-77
2022/07/19 04:21:07;;;;;;;10.18;8.27;;;17.40;99.90;;;;;;4937367;29;20521;-80
2022/07/19 04:23:33;;;;;;;11.98;8.32;;;17.40;99.90;;;;;;4938335;29;20126;-78
2022/07/19 04:25:59;;;;;;;12.18;7.78;;;17.40;99.90;;;;;;4938432;29;20039;-74
2022/07/19 04:28:24;;;;;;;10.32;8.57;;;17.40;99.90;;;;;;4938497;29;20131;-75
2022/07/19 04:30:50;;;;;;;7.97;7.07;;;17.50;99.90;;;;;;4938471;29;20095;-73
2022/07/19 04:33:17;;;;;;;9.98;7.32;;;17.50;99.90;;;;;;4938204;29;20464;-78
2022/07/19 04:35:44;;;;;;;13.63;7.88;;;17.50;99.90;;;;;;4938158;29;20105;-80
2022/07/19 04:38:10;;;;;;;14.25;7.65;;;17.60;99.90;;;;;;4937963;29;20052;-75
2022/07/19 04:40:36;;;;;;;10.98;7.72;;;17.70;99.90;;;;;;4937485;29;20043;-76
2022/07/19 04:43:02;;;;;;;11.18;7.82;;;17.70;99.90;;;;;;4937882;29;20051;-76
2022/07/19 04:45:28;;;;;;;10.98;6.88;;;17.80;99.90;;;;;;4937714;29;20048;-78
2022/07/19 04:47:54;;;;;;;10.52;7.72;;;17.80;99.90;;;;;;4937931;29;20087;-77
2022/07/19 04:50:20;;;;;;;7.97;6.68;;;17.90;99.90;;;;;;4937843;29;20408;-74
2022/07/19 04:52:46;;;;;;;10.45;7.38;;;18.00;99.90;;;;;;4936630;29;20077;-77
2022/07/19 04:55:12;;;;;;;9.82;7.53;;;18.10;99.90;;;;;;4937766;29;20476;-78
2022/07/19 04:57:38;;;;;;;11.20;7.82;;;18.10;99.90;;;;;;4938022;29;20056;-76
2022/07/19 05:00:08;;;;;;;11.75;8.10;;;18.20;99.90;;;;;;4937592;29;20055;-76
2022/07/19 05:02:35;;;;;;;9.93;8.30;;;18.20;99.90;;;;;;4938104;29;20051;-78
2022/07/19 05:05:00;;;;;;;10.70;7.95;;;18.20;99.90;;;;;;4937440;29;20047;-74
2022/07/19 05:07:26;;;;;;;11.98;8.95;;;18.30;99.90;;;;;;4937571;29;20048;-73
2022/07/19 05:09:52;;;;;;;11.95;7.68;;;18.30;99.90;;;;;;4936272;29;20135;-77
2022/07/19 05:12:17;;;;;;;12.77;8.77;;;18.30;99.90;;;;;;4936302;29;20099;-78
2022/07/19 05:14:43;;;;;;;12.68;8.05;;;18.30;99.90;;;;;;4936482;29;20047;-79
2022/07/19 05:17:09;;;;;;;11.40;7.90;;;18.70;99.90;;;;;;4937330;29;20102;-76
2022/07/19 05:19:35;;;;;;;8.45;7.20;;;18.40;99.90;;;;;;4937299;29;20058;-74
2022/07/19 05:22:01;;;;;;;10.88;8.15;;;18.50;99.90;;;;;;4937232;29;20047;-74
2022/07/19 05:24:26;;;;;;;14.18;8.43;;;18.60;99.90;;;;;;4936908;29;20509;-74
2022/07/19 05:26:52;;;;;;;12.15;7.60;;;18.70;99.90;;;;;;4936949;29;20054;-78
2022/07/19 05:29:18;;;;;;;11.02;7.75;;;18.70;99.90;;;;;;4936438;29;20138;-79
2022/07/19 05:31:43;;;;;;;13.38;7.88;;;18.80;99.90;;;;;;4937041;29;20048;-76
2022/07/19 05:34:09;;;;;;;10.18;8.23;;;19.00;99.90;;;;;;4937285;29;20126;-79
2022/07/19 05:36:35;;;;;;;11.38;8.07;;;19.00;99.90;;;;;;4937260;29;20083;-77
2022/07/19 05:39:00;;;;;;;11.55;8.32;;;19.10;99.90;;;;;;4935939;29;20047;-74
2022/07/19 05:41:26;;;;;;;9.52;7.57;;;19.20;99.90;;;;;;4936598;29;20504;-75
2022/07/19 05:43:52;;;;;;;9.57;7.88;;;19.30;99.90;;;;;;4937147;29;20475;-79
2022/07/19 05:46:18;;;;;;;9.00;8.05;;;19.40;99.90;;;;;;4937281;29;20048;-78
2022/07/19 05:48:44;;;;;;;10.95;8.15;;;19.40;99.90;;;;;;4936740;29;20052;-75
2022/07/19 05:51:10;;;;;;;10.35;7.63;;;19.50;99.90;;;;;;4936827;29;20051;-78
2022/07/19 05:53:36;;;;;;;11.60;7.82;;;19.60;99.90;;;;;;4936951;29;20369;-75
2022/07/19 05:56:03;;;;;;;10.20;7.97;;;19.80;99.90;;;;;;4937036;29;20055;-75
2022/07/19 05:58:29;;;;;;;12.23;7.85;;;19.90;99.90;;;;;;4936658;29;20083;-75
2022/07/19 06:03:39;;;;;;;12.30;7.45;;;20.20;99.90;;;;;;4936765;29;20056;-77
2022/07/19 06:06:04;;;;;;;10.02;7.65;;;20.40;99.90;;;;;;4936213;29;20065;-78
2022/07/19 06:08:30;;;;;;;10.32;6.88;;;20.60;99.90;;;;;;4936914;29;20056;-79
2022/07/19 06:10:56;;;;;;;10.65;7.05;;;20.70;99.90;;;;;;4936624;29;20050;-78
2022/07/19 06:13:22;;;;;;;9.00;7.35;;;20.90;99.90;;;;;;4936898;29;20448;-78
2022/07/19 06:15:47;;;;;;;10.65;7.60;;;21.00;99.90;;;;;;4936447;29;20091;-80
2022/07/19 06:18:13;;;;;;;9.57;6.95;;;21.20;99.90;;;;;;4936648;29;20515;-80
2022/07/19 06:20:39;;;;;;;9.80;7.28;;;21.40;99.90;;;;;;4935621;29;20051;-75
2022/07/19 06:23:04;;;;;;;11.43;7.25;;;21.50;99.90;;;;;;4936368;29;20058;-76
2022/07/19 06:25:30;;;;;;;9.73;7.15;;;21.70;99.90;;;;;;4936419;29;20050;-74
2022/07/19 06:27:56;;;;;;;9.23;7.47;;;21.90;99.90;;;;;;4936263;29;20377;-78
2022/07/19 06:30:21;;;;;;;10.15;7.47;;;22.00;99.90;;;;;;4935782;29;20099;-76
2022/07/19 06:32:47;;;;;;;10.80;8.55;;;22.20;99.90;;;;;;4919840;29;20046;-78
2022/07/19 06:35:13;;;;;;;9.85;7.00;;;22.60;99.90;;;;;;4936190;29;20044;-82
2022/07/19 06:37:38;;;;;;;11.18;6.70;;;23.40;99.90;;;;;;4936563;29;20048;-75
2022/07/19 06:40:05;;;;;;;10.63;6.25;;;24.50;99.90;;;;;;4935815;29;20456;-75
2022/07/19 06:42:31;;;;;;;9.55;6.80;;;25.50;99.90;;;;;;4936015;29;20082;-82
2022/07/19 06:44:58;;;;;;;7.97;6.55;;;26.50;99.30;;;;;;4935884;29;20076;-75
2022/07/19 06:47:24;;;;;;;10.27;6.05;;;27.30;97.70;;;;;;4935925;29;20054;-76
2022/07/19 06:49:50;;;;;;;8.25;6.22;;;27.90;96.20;;;;;;4935948;29;20138;-76
2022/07/19 06:52:15;;;;;;;10.68;6.25;;;28.50;95.20;;;;;;4935053;29;20052;-84
2022/07/19 06:54:41;;;;;;;9.35;5.82;;;28.90;94.00;;;;;;4936131;29;20131;-75
2022/07/19 06:57:08;;;;;;;8.20;5.32;;;29.30;93.30;;;;;;4935656;29;20047;-84
2022/07/19 06:59:34;;;;;;;10.07;5.55;;;29.70;92.60;;;;;;4935865;29;20055;-81
2022/07/19 07:01:59;;;;;;;10.15;5.53;;;30.00;91.90;;;;;;4934534;29;20110;-82
2022/07/19 07:04:25;;;;;;;8.63;5.80;;;30.20;91.10;;;;;;4935782;29;20552;-78
2022/07/19 07:06:51;;;;;;;8.63;6.00;;;30.30;90.60;;;;;;4934442;29;20048;-83
2022/07/19 07:09:16;;;;;;;10.85;6.25;;;30.60;90.10;;;;;;4935938;29;20485;-78
2022/07/19 07:11:42;;;;;;;7.65;5.90;;;31.00;89.10;;;;;;4935352;29;20520;-82
2022/07/19 07:14:08;;;;;;;8.27;5.78;;;31.00;88.50;;;;;;4935529;29;20604;-76
2022/07/19 07:16:33;;;;;;;7.57;5.28;;;31.10;87.80;;;;;;4935395;29;20055;-78
2022/07/19 07:18:59;;;;;;;9.40;5.22;;;31.30;86.90;;;;;;4935413;29;20054;-81
2022/07/19 07:21:25;;;;;;;10.15;4.43;;;31.50;86.20;;;;;;4935512;29;20106;-79
2022/07/19 07:23:50;;;;;;;8.57;5.47;;;31.90;85.60;;;;;;4934959;29;20055;-75
2022/07/19 07:26:16;;;;;;;8.25;4.50;;;32.00;84.40;;;;;;4935369;29;20051;-76
2022/07/19 07:28:42;;;;;;;9.55;5.10;;;32.10;83.90;;;;;;4935517;29;20483;-81
2022/07/19 07:31:07;;;;;;;7.50;5.13;;;32.00;83.20;;;;;;4934108;29;20131;-75
2022/07/19 07:33:33;;;;;;;10.57;5.05;;;32.20;82.30;;;;;;4934783;29;20126;-82
2022/07/19 07:35:59;;;;;;;9.30;4.90;;;32.50;81.30;;;;;;4934933;29;20040;-76
2022/07/19 07:38:24;;;;;;;6.78;4.40;;;32.70;81.30;;;;;;4935279;29;20107;-74
2022/07/19 07:40:50;;;;;;;8.65;4.47;;;33.20;80.00;;;;;;4934870;29;20138;-73
2022/07/19 07:43:16;;;;;;;7.13;4.47;;;33.20;78.50;;;;;;4933875;29;20087;-76
2022/07/19 07:45:42;;;;;;;5.07;3.78;;;33.50;78.10;;;;;;4934494;29;20043;-76
2022/07/19 07:48:08;;;;;;;6.57;4.47;;;33.50;77.40;;;;;;4935168;29;20052;-79
2022/07/19 07:50:34;;;;;;;10.20;4.70;;;33.70;77.00;;;;;;4934621;29;20066;-78
2022/07/19 07:52:59;;;;;;;5.93;3.72;;;33.70;76.70;;;;;;4933774;29;20084;-79
2022/07/19 07:55:25;;;;;;;6.55;4.68;;;33.80;76.30;;;;;;4934805;29;20123;-78
2022/07/19 07:57:51;;;;;;;8.40;3.80;;;33.90;75.60;;;;;;4933729;29;20047;-76
2022/07/19 08:00:18;;;;;;;9.45;4.57;;;34.10;74.70;;;;;;4934614;29;20050;-76
2022/07/19 08:02:45;;;;;;;8.73;3.65;;;34.20;74.20;;;;;;4934905;29;20074;-75
2022/07/19 08:05:12;;;;;;;5.35;3.97;;;34.60;73.10;;;;;;4934458;29;20040;-75
2022/07/19 08:07:38;;;;;;;6.50;4.30;;;35.00;73.70;;;;;;4934756;29;20059;-77
2022/07/19 08:10:05;;;;;;;9.32;4.13;;;35.30;73.00;;;;;;4934558;29;20051;-80
2022/07/19 08:12:31;;;;;;;6.32;4.25;;;35.40;72.00;;;;;;4935297;29;20098;-79
2022/07/19 08:14:57;;;;;;;8.13;3.90;;;35.50;71.30;;;;;;4934588;29;20052;-79
2022/07/19 08:17:23;;;;;;;7.95;3.78;;;35.80;71.00;;;;;;4934453;29;20100;-77
2022/07/19 08:19:48;;;;;;;5.70;3.78;;;35.80;70.40;;;;;;4934455;29;20096;-80
2022/07/19 08:22:15;;;;;;;5.10;3.55;;;36.00;70.10;;;;;;4933637;29;20080;-75
2022/07/19 08:24:41;;;;;;;4.22;3.13;;;36.10;69.20;;;;;;4934136;29;20468;-76
2022/07/19 08:27:07;;;;;;;4.97;3.53;;;36.20;68.50;;;;;;4933653;29;20051;-79
2022/07/19 08:29:33;;;;;;;5.28;3.40;;;36.50;68.30;;;;;;4933316;29;20373;-77
2022/07/19 08:31:58;;;;;;;5.25;3.15;;;36.60;68.10;;;;;;4934513;29;20153;-75
2022/07/19 08:34:24;;;;;;;5.95;3.45;;;36.70;67.60;;;;;;4933167;29;20111;-78
2022/07/19 08:36:50;;;;;;;3.70;3.15;;;36.90;66.40;;;;;;4934385;29;20060;-78
2022/07/19 08:39:15;;;;;;;6.47;3.67;;;36.90;65.80;;;;;;4934270;29;20066;-81
2022/07/19 08:41:44;;;;;;;4.55;3.38;;;36.80;65.20;;;;;;4934543;29;20151;-75
2022/07/19 08:44:12;;;;;;;8.43;3.25;;;36.90;64.80;;;;;;4933166;29;20052;-79
2022/07/19 08:46:42;;;;;;;6.22;3.13;;;36.70;64.40;;;;;;4934116;29;20220;-77
2022/07/19 08:49:09;;;;;;;4.38;2.97;;;36.70;64.40;;;;;;4934048;29;20490;-77
2022/07/19 08:51:35;;;;;;;3.33;2.85;;;36.80;64.00;;;;;;4933971;29;20062;-78
2022/07/19 08:54:01;;;;;;;4.03;3.00;;;36.90;63.70;;;;;;4935373;29;20078;-81
2022/07/19 08:59:12;;;;;;;6.78;3.22;;;37.00;63.80;;;;;;4937947;29;20048;-76
2022/07/19 09:01:38;;;;;;;7.15;3.28;;;37.30;64.00;;;;;;4937233;29;20503;-77
2022/07/19 09:04:19;;;;;;;4.85;3.20;;;37.50;63.70;;;;;;4937810;29;20123;-77
2022/07/19 09:06:47;;;;;;;4.00;2.70;;;37.40;63.00;;;;;;4937317;29;20164;-79
2022/07/19 09:09:18;;;;;;;3.30;2.97;;;37.40;63.40;;;;;;4937398;29;20055;-82
2022/07/19 09:11:49;;;;;;;4.78;3.40;;;37.40;63.00;;;;;;4937374;29;20074;-79
2022/07/19 09:14:17;;;;;;;3.72;2.50;;;37.50;63.30;;;;;;4937288;29;20048;-78
2022/07/19 09:16:56;;;;;;;5.78;3.33;;;37.60;63.30;;;;;;4936963;29;20479;-78
2022/07/19 09:19:24;;;;;;;3.90;2.67;;;37.40;62.40;;;;;;4937177;29;20043;-78
2022/07/19 09:22:04;;;;;;;4.07;2.97;;;37.40;63.50;;;;;;4937632;29;20051;-80
2022/07/19 09:24:39;;;;;;;4.63;3.25;;;37.60;62.40;;;;;;4937068;29;20159;-76
2022/07/19 09:27:16;;;;;;;4.53;3.10;;;37.50;63.00;;;;;;4936687;29;20498;-80
2022/07/19 09:29:47;;;;;;;4.07;3.20;;;37.50;62.70;;;;;;4937127;29;20035;-77
2022/07/19 09:32:16;;;;;;;6.13;2.40;;;37.60;62.80;;;;;;4936746;29;20483;-80
2022/07/19 09:34:51;;;;;;;5.22;2.60;;;37.40;62.50;;;;;;4935995;29;20052;-76
2022/07/19 09:37:28;;;;;;;4.40;2.58;;;37.50;62.30;;;;;;4937365;29;20177;-80
2022/07/19 09:39:59;;;;;;;4.72;2.75;;;37.70;61.60;;;;;;4937051;29;20047;-77
2022/07/19 09:42:43;;;;;;;5.20;2.53;;;37.80;61.60;;;;;;4936986;29;20066;-80
2022/07/19 09:45:14;;;;;;;2.78;2.50;;;37.60;60.80;;;;;;4937284;29;20087;-78
2022/07/19 09:47:42;;;;;;;3.92;2.55;;;37.50;61.30;;;;;;4936972;29;20119;-78
2022/07/19 09:50:16;;;;;;;6.90;3.03;;;37.50;62.00;;;;;;4936781;29;20217;-78
2022/07/19 09:52:43;;;;;;;4.32;2.63;;;37.80;61.50;;;;;;4935929;29;20043;-75
2022/07/19 09:55:10;;;;;;;3.20;2.72;;;37.70;61.00;;;;;;4935733;29;20059;-76
2022/07/19 09:57:39;;;;;;;4.47;2.80;;;37.80;60.30;;;;;;4936702;29;20048;-76
2022/07/19 10:00:06;;;;;;;3.95;2.45;;;37.80;59.80;;;;;;4936599;29;20048;-79
2022/07/19 10:02:36;;;;;;;3.22;2.30;;;37.90;59.20;;;;;;4936770;29;20056;-76
2022/07/19 10:05:02;;;;;;;4.88;2.72;;;37.90;58.90;;;;;;4935634;29;20059;-77
2022/07/19 10:07:29;;;;;;;2.97;2.50;;;37.90;59.30;;;;;;4936256;29;20051;-78
2022/07/19 10:09:55;;;;;;;3.42;2.65;;;37.90;59.10;;;;;;4936476;29;20102;-78
2022/07/19 10:12:21;;;;;;;4.32;2.40;;;38.00;59.20;;;;;;4936189;29;20453;-78
2022/07/19 10:14:47;;;;;;;7.72;2.88;;;38.10;58.90;;;;;;4935400;29;20058;-81
2022/07/19 10:17:16;;;;;;;3.78;2.47;;;38.10;58.50;;;;;;4936325;29;20123;-80
2022/07/19 10:19:47;;;;;;;4.72;2.30;;;38.00;58.20;;;;;;4936097;29;20078;-76
2022/07/19 10:22:24;;;;;;;6.93;2.40;;;37.90;57.90;;;;;;4936097;29;20051;-83
2022/07/19 10:24:52;;;;;;;4.63;2.45;;;37.80;57.50;;;;;;4936030;29;20465;-75
2022/07/19 10:27:35;;;;;;;3.55;2.55;;;37.90;57.80;;;;;;4936196;29;20059;-82
2022/07/19 10:30:07;;;;;;;5.03;2.35;;;37.90;57.30;;;;;;4936317;29;20055;-76
2022/07/19 10:32:33;;;;;;;6.18;2.22;;;37.80;57.20;;;;;;4935937;29;20043;-80
2022/07/19 10:35:22;;;;;;;2.75;2.47;;;37.90;57.10;;;;;;4935774;29;20491;-76
2022/07/19 10:37:50;;;;;;;4.90;2.28;;;38.00;57.20;;;;;;4936148;29;20204;-80
2022/07/19 10:40:40;;;;;;;2.92;1.90;;;38.00;56.90;;;;;;4935625;29;20051;-76
2022/07/19 10:43:20;;;;;;;3.67;2.00;;;38.00;56.50;;;;;;4935862;29;20067;-80
2022/07/19 10:46:04;;;;;;;6.43;2.65;;;37.80;55.70;;;;;;4935163;29;20082;-83
2022/07/19 10:48:36;;;;;;;4.45;2.25;;;37.80;56.00;;;;;;4936255;29;20069;-82
2022/07/19 10:51:03;;;;;;;5.28;2.42;;;37.90;56.20;;;;;;4936162;29;20176;-76
2022/07/19 10:53:41;;;;;;;3.40;2.25;;;37.90;56.20;;;;;;4935346;29;20480;-77
2022/07/19 10:56:17;;;;;;;2.47;1.90;;;38.10;56.10;;;;;;4935406;29;20358;-81
2022/07/19 10:59:05;;;;;;;3.40;1.98;;;38.00;55.90;;;;;;4935788;29;20068;-81
2022/07/19 11:01:33;;;;;;;2.50;2.28;;;37.90;56.00;;;;;;4935821;29;20169;-75
2022/07/19 11:04:28;;;;;;;4.20;2.03;;;37.80;55.90;;;;;;4935318;29;20204;-75
2022/07/19 11:07:12;;;;;;;3.28;2.00;;;37.60;55.40;;;;;;4935185;29;20126;-78
2022/07/19 11:09:40;;;;;;;6.10;2.33;;;37.50;54.90;;;;;;4935321;29;20575;-84
2022/07/19 11:12:43;;;;;;;6.68;2.53;;;37.40;55.60;;;;;;4935395;29;20051;-81
2022/07/19 11:15:10;;;;;;;3.85;2.15;;;37.20;55.00;;;;;;4935547;29;20087;-78
2022/07/19 11:17:35;;;;;;;2.28;2.00;;;37.00;54.70;;;;;;4935296;29;20060;-82
2022/07/19 11:20:08;;;;;;;2.42;2.08;;;36.70;54.50;;;;;;4935568;29;20052;-82
2022/07/19 11:22:45;;;;;;;2.88;2.30;;;36.60;54.50;;;;;;4935278;29;20492;-80
2022/07/19 11:25:13;;;;;;;3.90;2.47;;;36.40;54.80;;;;;;4935334;29;20124;-79
2022/07/19 11:27:43;;;;;;;4.75;2.38;;;36.50;55.10;;;;;;4935110;29;20055;-79
2022/07/19 11:30:10;;;;;;;4.05;2.25;;;36.50;55.30;;;;;;4935221;29;20055;-79
2022/07/19 11:32:36;;;;;;;2.97;2.28;;;36.50;54.80;;;;;;4933879;29;20087;-78
2022/07/19 11:35:05;;;;;;;6.63;2.25;;;36.40;54.80;;;;;;4933975;29;20082;-77
2022/07/19 11:37:34;;;;;;;5.70;2.50;;;36.40;54.70;;;;;;4934895;29;20044;-83
2022/07/19 11:40:00;;;;;;;4.28;2.13;;;36.30;54.60;;;;;;4933977;29;20147;-83
2022/07/19 11:42:31;;;;;;;3.90;2.30;;;36.20;54.70;;;;;;4935476;29;20055;-80
2022/07/19 11:44:57;;;;;;;9.60;2.53;;;36.20;55.00;;;;;;4933766;29;20054;-81
2022/07/19 11:47:23;;;;;;;3.75;2.45;;;36.20;54.90;;;;;;4935303;29;20047;-79
2022/07/19 11:49:49;;;;;;;4.90;2.75;;;36.20;54.90;;;;;;4935023;29;20063;-79
2022/07/19 11:52:14;;;;;;;3.67;2.67;;;36.30;55.10;;;;;;4934329;29;20514;-80
2022/07/19 11:54:40;;;;;;;3.10;2.33;;;36.30;54.90;;;;;;4935238;29;20070;-81
2022/07/19 11:57:25;;;;;;;2.70;2.15;;;36.30;54.90;;;;;;4934115;29;20142;-86
2022/07/19 11:59:51;;;;;;;2.90;2.47;;;36.30;55.40;;;;;;4935568;29;20126;-84
2022/07/19 12:02:17;;;;;;;3.65;2.55;;;36.30;54.90;;;;;;4934865;29;20513;-82
2022/07/19 12:04:42;;;;;;;3.08;1.90;;;36.20;55.20;;;;;;4934869;29;20059;-80
2022/07/19 12:07:08;;;;;;;4.40;2.40;;;36.30;54.80;;;;;;4935395;29;20051;-82
2022/07/19 12:09:34;;;;;;;4.40;2.58;;;36.20;54.90;;;;;;4935395;29;20138;-91
2022/07/19 12:12:10;;;;;;;5.30;2.55;;;36.30;54.80;;;;;;4935173;29;20058;-81
2022/07/19 12:14:37;;;;;;;5.25;2.72;;;36.30;54.70;;;;;;4934942;29;20066;-77
2022/07/19 12:17:14;;;;;;;4.20;2.75;;;36.30;54.80;;;;;;4934754;29;20054;-79
2022/07/19 12:19:46;;;;;;;3.72;2.28;;;36.30;55.20;;;;;;4935116;29;20469;-82
2022/07/19 12:22:33;;;;;;;6.53;2.40;;;36.20;54.80;;;;;;4934553;29;20143;-81
2022/07/19 12:24:59;;;;;;;6.65;2.90;;;36.20;55.10;;;;;;4934705;29;20066;-76
2022/07/19 12:27:27;;;;;;;4.50;2.63;;;36.20;54.60;;;;;;4934557;29;20582;-82
2022/07/19 12:29:55;;;;;;;5.25;2.38;;;36.30;54.70;;;;;;4936217;29;20051;-76
2022/07/19 12:32:38;;;;;;;5.38;2.40;;;36.40;54.50;;;;;;4938163;29;20052;-77
2022/07/19 12:35:10;;;;;;;3.70;2.38;;;36.30;54.50;;;;;;4938445;29;20527;-82
2022/07/19 12:37:42;;;;;;;3.65;2.47;;;36.40;54.30;;;;;;4938779;29;20043;-79
2022/07/19 12:40:19;;;;;;;4.85;2.40;;;36.40;54.40;;;;;;4938891;29;20106;-78
2022/07/19 12:43:05;;;;;;;3.00;2.30;;;36.40;54.40;;;;;;4938564;29;20059;-79
2022/07/19 12:45:43;;;;;;;5.72;2.33;;;36.40;54.30;;;;;;4938483;29;20051;-83
2022/07/19 12:48:11;;;;;;;3.40;2.25;;;36.20;54.60;;;;;;4938370;29;20054;-81
2022/07/19 12:50:40;;;;;;;8.07;2.88;;;36.40;54.80;;;;;;4938824;29;20079;-82
2022/07/19 12:53:09;;;;;;;3.38;2.40;;;36.50;54.50;;;;;;4922094;29;20048;-77